Norilsk-Alykel Airport
UOOO : now visible

Airfield :











YOU CAN JOIN US ON...

 
LOGIN :

Register | Disclaimer

   EN    FR    IT 

 









Legend :    VFR   Marginal VFR   IFR   Intensive IFR   Very Intensive IFR
Visi :
Ceiling :
>= 8 km
>= 3000ft
5 to 8 km
1000 to 3000 ft
1500m to 5 km
500 to 1000 ft
800 to 1500m
200 to 500 ft
< 800m
< 200 ft
Symbols :   Thunderstorms  Fog  Heavy snow  Heavy precipitations  Wind > 20 kt






- Airport Elevation : 574 ft
- IATA code : NSK


UOOO - Norilsk-Alykel

CURRENT METAR :
  • 021600Z 15020MPS 0300 0200SE R19/0900N BLSN OVC/// M04/M05 Q0992 R19/495529 NOSIG RMK QFE728/0971

EXPIRED METARs :
  • 021500Z 14021MPS 0200 0150SE R19/0700N BLSN FEW/// M04/M05 Q0993 R19/495529 NOSIG RMK QFE729/0972
  • 021400Z 14022MPS 0150 0050SE R19/0350N BLSN NSC M05/M06 Q0994 R19/39//50 NOSIG RMK QFE730/0973

TAF TAF UOOO
Valid from the 02 at 15:00 until the 03 at 15:00 UTC


021347Z 0215/0315 14020G25MPS 0200 BLSN BKN015
FM030000 16014G19MPS 1200 SHSN BLSN BKN011CB
TEMPO 0300/0312 0500 BLSN VV002
BECMG 0306/0308 22010G15MPS



MET'MAP, your aeronautical weather chart ! - Copyright ORBIFLY December 2007 - Disclaimer

ORBIFLY MET'MAP TEAM :

Programming & Development : Alexandra Zaïnal
Concept & original design : Baudouin d'Aumeries
Assistance for programming : Marc-Olivier Méhu
Technical & hardware support : Manuel Goepfert

Contact : metmap@orbifly.com




SOURCES & CREDITS :

   NOAA       Earth
Advisory